New York, New York
Traffic Map
Current Weather Conditions
New York, New York
Broken Clouds
Broken Clouds
42°
Feels Like: 38°
Wind Chill: 38° Ceiling: 3600
Heat Index: 42° Visibility: 10mi
Dew Point: 29° Wind: 7mph
Humidity: 60% Direction: 300° (WNW)
Pressure: 29.86in Gusts: 0mph
Raw Report DataKNYC 310851Z AUTO 30006KT 10SM BKN036 BKN043 06/M02 A2986 RMK AO2 SLP105 T00561017 55001 $
Traffic Incident Summary
Active as of:
Severity:
Category:
InformationThere was an issue retrieving the traffic information for this location. Please try a different location or try again shortly.
Advertisements
Track Severe Weather on mobile